createdAt,value
2018-10-12T00:02:06.946Z,13.97
2018-10-12T00:04:35.493Z,14.83
2018-10-12T00:07:04.052Z,13.90
2018-10-12T00:09:32.604Z,11.70
2018-10-12T00:12:01.224Z,15.97
2018-10-12T00:14:29.820Z,17.60
2018-10-12T00:16:58.484Z,17.90
2018-10-12T00:19:27.196Z,13.30
2018-10-12T00:21:55.820Z,13.93
2018-10-12T00:24:24.596Z,11.50
2018-10-12T00:26:53.201Z,16.20
2018-10-12T00:29:21.968Z,17.67
2018-10-12T00:31:50.532Z,13.80
2018-10-12T00:34:19.440Z,12.13
2018-10-12T00:37:05.128Z,12.20
2018-10-12T00:39:33.767Z,16.00
2018-10-12T00:42:02.357Z,19.50
2018-10-12T00:44:30.957Z,20.33
2018-10-12T00:46:59.515Z,16.50
2018-10-12T00:49:28.287Z,19.23
2018-10-12T00:51:56.904Z,16.00
2018-10-12T00:54:25.479Z,14.40
2018-10-12T00:56:54.037Z,14.77
2018-10-12T00:59:22.628Z,12.27
2018-10-12T01:01:51.156Z,15.70
2018-10-12T01:04:20.036Z,17.83
2018-10-12T01:06:48.678Z,17.07
2018-10-12T01:09:17.192Z,22.73
2018-10-12T01:11:45.740Z,19.90
2018-10-12T01:14:14.321Z,26.37
2018-10-12T01:16:42.882Z,23.90
2018-10-12T01:19:11.406Z,18.20
2018-10-12T01:21:48.420Z,25.60
2018-10-12T01:24:16.958Z,23.83
2018-10-12T01:26:45.503Z,21.80
2018-10-12T01:29:14.088Z,17.20
2018-10-12T01:31:42.633Z,21.17
2018-10-12T01:34:11.224Z,17.20
2018-10-12T01:36:39.764Z,18.97
2018-10-12T01:39:08.328Z,15.13
2018-10-12T01:41:36.876Z,15.90
2018-10-12T01:44:05.432Z,12.97
2018-10-12T01:46:33.972Z,13.80
2018-10-12T01:49:02.509Z,14.40
2018-10-12T01:51:31.065Z,16.43
2018-10-12T01:53:59.584Z,14.73
2018-10-12T01:56:28.120Z,11.43
2018-10-12T01:58:56.653Z,14.93
2018-10-12T02:01:25.212Z,12.90
2018-10-12T02:03:53.736Z,12.00
2018-10-12T02:06:22.271Z,14.97
2018-10-12T02:08:50.822Z,15.90
2018-10-12T02:11:19.375Z,13.30
2018-10-12T02:13:47.916Z,14.10
2018-10-12T02:16:16.444Z,12.53
2018-10-12T02:18:44.993Z,14.03
2018-10-12T02:21:13.689Z,15.70
2018-10-12T02:23:42.354Z,17.23
2018-10-12T02:26:10.888Z,17.33
2018-10-12T02:28:39.443Z,15.97
2018-10-12T02:31:08.010Z,13.23
2018-10-12T02:33:36.556Z,15.73
2018-10-12T02:36:05.139Z,13.63
2018-10-12T02:38:33.706Z,13.43
2018-10-12T02:41:02.613Z,13.10
2018-10-12T02:43:31.188Z,13.10
2018-10-12T02:45:59.761Z,14.00
2018-10-12T02:48:28.337Z,14.07
2018-10-12T02:50:56.927Z,13.00
2018-10-12T02:53:25.483Z,14.30
2018-10-12T02:55:54.124Z,18.60
2018-10-12T02:58:22.696Z,16.23
2018-10-12T03:00:51.355Z,15.77
2018-10-12T03:03:19.923Z,13.73
2018-10-12T03:05:48.535Z,10.60
2018-10-12T03:08:17.060Z,15.00
2018-10-12T03:10:45.688Z,11.70
2018-10-12T03:13:14.388Z,13.43
2018-10-12T03:15:43.203Z,12.70
2018-10-12T03:18:12.232Z,11.53
2018-10-12T03:20:41.008Z,12.73
2018-10-12T03:23:09.659Z,13.23
2018-10-12T03:25:38.186Z,14.97
2018-10-12T03:28:17.816Z,13.30
2018-10-12T03:30:46.439Z,11.57
2018-10-12T03:33:15.400Z,11.80
2018-10-12T03:35:44.264Z,12.57
2018-10-12T03:38:13.029Z,12.10
2018-10-12T03:40:41.758Z,14.67
2018-10-12T03:43:10.601Z,12.13
2018-10-12T03:45:39.459Z,12.17
2018-10-12T03:48:08.394Z,10.90
2018-10-12T03:50:37.207Z,12.30
2018-10-12T03:53:06.159Z,12.40
2018-10-12T03:55:34.748Z,11.70
2018-10-12T03:58:03.320Z,10.73
2018-10-12T04:00:31.862Z,13.10
2018-10-12T04:03:00.404Z,14.30
2018-10-12T04:05:28.943Z,11.70
2018-10-12T04:07:57.494Z,13.73
2018-10-12T04:10:26.019Z,11.60
2018-10-12T04:12:54.872Z,13.50
2018-10-12T04:15:23.771Z,17.00
2018-10-12T04:17:52.396Z,10.40
2018-10-12T04:20:20.932Z,17.17
2018-10-12T04:22:49.471Z,13.10
2018-10-12T04:25:17.988Z,11.40
2018-10-12T04:27:46.525Z,12.80
2018-10-12T04:30:15.084Z,12.70
2018-10-12T04:38:23.669Z,15.53
2018-10-12T04:41:04.264Z,11.00
2018-10-12T04:43:33.284Z,15.17
2018-10-12T04:46:03.639Z,14.07
2018-10-12T04:48:32.492Z,12.03
2018-10-12T04:51:01.374Z,13.53
2018-10-12T04:53:29.996Z,11.87
2018-10-12T04:55:58.628Z,16.57
2018-10-12T04:58:28.079Z,14.13
2018-10-12T05:00:56.659Z,11.60
2018-10-12T05:03:25.202Z,13.17
2018-10-12T05:05:53.753Z,12.83
2018-10-12T05:08:22.286Z,26.10
2018-10-12T05:10:50.858Z,10.53
2018-10-12T05:13:20.223Z,14.30
2018-10-12T05:15:48.763Z,13.10
2018-10-12T05:18:17.311Z,16.83
2018-10-12T05:20:46.028Z,13.07
2018-10-12T05:23:14.576Z,13.93
2018-10-12T05:25:43.414Z,12.07
2018-10-12T05:28:12.223Z,18.93
2018-10-12T05:30:40.800Z,11.80
2018-10-12T05:33:09.324Z,16.03
2018-10-12T05:35:37.907Z,12.77
2018-10-12T05:38:06.524Z,15.57
2018-10-12T05:40:35.118Z,15.57
2018-10-12T05:43:03.713Z,18.30
2018-10-12T05:45:32.280Z,17.97
2018-10-12T05:48:11.731Z,14.23
2018-10-12T05:50:40.396Z,15.77
2018-10-12T05:53:08.976Z,15.67
2018-10-12T05:55:37.560Z,13.50
2018-10-12T05:58:06.493Z,12.00
2018-10-12T06:00:35.061Z,17.20
2018-10-12T06:03:03.620Z,15.63
2018-10-12T06:05:32.152Z,13.53
2018-10-12T06:08:00.720Z,14.37
2018-10-12T06:10:29.257Z,12.43
2018-10-12T06:12:57.857Z,16.20
2018-10-12T06:15:26.622Z,17.03
2018-10-12T06:17:55.194Z,24.70
2018-10-12T06:20:23.768Z,19.47
2018-10-12T06:22:52.341Z,20.57
2018-10-12T06:25:20.875Z,23.00
2018-10-12T06:27:49.452Z,26.17
2018-10-12T06:30:18.241Z,30.40
2018-10-12T06:32:46.815Z,40.53
2018-10-12T06:35:15.435Z,34.00
2018-10-12T06:37:44.000Z,31.03
2018-10-12T06:40:12.543Z,34.50
2018-10-12T06:42:41.188Z,27.70
2018-10-12T06:45:09.760Z,33.63
2018-10-12T06:47:38.291Z,27.30
2018-10-12T06:50:07.085Z,20.07
2018-10-12T06:52:35.883Z,24.60
2018-10-12T06:55:04.574Z,33.63
2018-10-12T06:57:33.125Z,32.00
2018-10-12T07:00:01.749Z,28.77
2018-10-12T07:02:30.279Z,33.70
2018-10-12T07:04:58.868Z,87.30
2018-10-12T07:07:27.423Z,46.93
2018-10-12T07:09:55.960Z,25.30
2018-10-12T07:12:24.525Z,24.03
2018-10-12T07:14:53.061Z,24.63
2018-10-12T10:59:57.616Z,11.83
2018-10-12T11:02:26.169Z,13.03
2018-10-12T11:04:54.697Z,12.00
2018-10-12T11:07:23.256Z,11.80
2018-10-12T11:09:51.780Z,11.97
2018-10-12T11:12:20.421Z,13.43
2018-10-12T11:14:48.903Z,15.40
2018-10-12T11:17:17.464Z,15.63
2018-10-12T11:19:46.037Z,11.70
2018-10-12T11:22:15.967Z,12.17
2018-10-12T11:24:44.485Z,18.03
2018-10-12T11:27:13.077Z,14.40
2018-10-12T11:29:41.607Z,10.40
2018-10-12T11:32:10.144Z,12.80
2018-10-12T11:34:38.672Z,10.40
2018-10-12T11:37:07.273Z,12.90
2018-10-12T11:39:47.803Z,11.80
2018-10-12T11:42:16.451Z,12.60
2018-10-12T11:44:45.054Z,10.67
2018-10-12T11:47:13.569Z,11.40
2018-10-12T11:49:42.120Z,11.30
2018-10-12T11:52:10.733Z,10.40
2018-10-12T11:54:39.227Z,10.77
2018-10-12T11:57:07.780Z,11.00
2018-10-12T11:59:36.322Z,12.00
2018-10-12T12:02:04.928Z,10.93
2018-10-12T12:04:33.435Z,10.57
2018-10-12T12:07:01.968Z,10.00
2018-10-12T12:09:30.517Z,10.13
2018-10-12T12:11:59.057Z,11.53
2018-10-12T12:14:27.604Z,11.60
2018-10-12T12:16:56.180Z,10.60
2018-10-12T12:19:24.798Z,10.40
2018-10-12T12:21:53.316Z,10.70
2018-10-12T12:24:21.844Z,10.70
2018-10-12T12:26:50.371Z,15.20
2018-10-12T12:29:18.924Z,14.17
2018-10-12T12:31:47.499Z,11.70
2018-10-12T12:34:16.104Z,12.23
2018-10-12T12:36:44.672Z,13.63
2018-10-12T12:39:13.227Z,11.97
2018-10-12T12:41:41.832Z,10.53
2018-10-12T12:44:10.512Z,11.43
2018-10-12T12:46:39.052Z,11.83
2018-10-12T12:49:08.132Z,15.37
2018-10-12T12:51:36.304Z,11.73
2018-10-12T12:54:04.840Z,11.10
2018-10-12T12:56:33.417Z,11.37
2018-10-12T12:59:01.977Z,13.07
2018-10-12T13:01:30.512Z,11.43
2018-10-12T13:03:59.044Z,10.57
2018-10-12T13:06:27.659Z,11.03
2018-10-12T13:08:56.220Z,11.27
2018-10-12T13:11:24.760Z,11.00
2018-10-12T13:13:53.317Z,11.57
2018-10-12T13:16:21.855Z,11.43
2018-10-12T13:18:50.383Z,10.17
2018-10-12T13:21:18.909Z,11.87
2018-10-12T13:23:47.443Z,13.53
2018-10-12T13:26:16.171Z,12.00
2018-10-12T13:28:44.570Z,14.37
2018-10-12T13:31:13.237Z,10.93
2018-10-12T13:33:41.788Z,13.33
2018-10-12T13:36:10.368Z,10.03
2018-10-12T13:38:38.905Z,10.70
2018-10-12T13:41:07.671Z,11.07
2018-10-12T13:43:36.276Z,11.47
2018-10-12T13:46:04.830Z,12.50
2018-10-12T13:48:33.372Z,12.00
2018-10-12T13:51:01.913Z,10.93
2018-10-12T13:53:30.482Z,15.50
2018-10-12T13:55:59.204Z,11.73
2018-10-12T13:58:27.740Z,13.30
2018-10-12T14:00:56.272Z,10.93
2018-10-12T14:03:24.811Z,11.47
2018-10-12T14:05:53.403Z,11.40
2018-10-12T14:08:21.950Z,13.43
2018-10-12T14:10:50.452Z,10.23
2018-10-12T14:13:19.002Z,10.73
2018-10-12T14:15:47.549Z,11.33
2018-10-12T14:18:16.169Z,10.13
2018-10-12T14:20:44.684Z,11.80
2018-10-12T14:23:13.240Z,10.27
2018-10-12T14:25:41.784Z,10.97
2018-10-12T14:28:10.491Z,11.57
2018-10-12T14:30:39.061Z,10.70
2018-10-12T14:33:08.076Z,10.13
2018-10-12T14:35:36.777Z,12.93
2018-10-12T14:38:05.387Z,15.63
2018-10-12T14:40:33.929Z,9.77
2018-10-12T14:43:02.498Z,11.00
2018-10-12T14:45:31.081Z,11.90
2018-10-12T14:47:59.683Z,12.23
2018-10-12T14:50:28.260Z,10.07
2018-10-12T14:52:56.887Z,11.67
2018-10-12T14:55:25.410Z,12.13
2018-10-12T14:57:53.956Z,9.30
2018-10-12T15:00:22.496Z,9.73
2018-10-12T15:02:51.027Z,12.00
2018-10-12T15:05:19.620Z,12.93
2018-10-12T15:07:48.168Z,11.03
2018-10-12T15:10:16.820Z,11.47
2018-10-12T15:12:45.375Z,11.33
2018-10-12T15:15:20.010Z,11.80
2018-10-12T15:17:49.632Z,12.73
2018-10-12T15:20:18.815Z,13.17
2018-10-12T15:22:47.395Z,15.40
2018-10-12T15:25:15.951Z,13.40
2018-10-12T15:27:44.688Z,13.30
2018-10-12T15:30:13.709Z,13.80
2018-10-12T15:32:42.296Z,12.77
2018-10-12T15:35:11.179Z,16.53
2018-10-12T15:37:40.543Z,15.13
2018-10-12T15:40:09.380Z,30.87
2018-10-12T15:42:38.092Z,23.80
2018-10-12T15:45:06.653Z,18.00
2018-10-12T15:47:35.276Z,15.70
2018-10-12T15:50:03.882Z,20.53
2018-10-12T15:52:32.444Z,19.53
2018-10-12T15:55:01.036Z,36.00
2018-10-12T15:57:30.789Z,64.53
2018-10-12T15:59:59.327Z,66.40
2018-10-12T16:02:27.904Z,51.40
2018-10-12T16:04:56.436Z,24.57
2018-10-12T16:07:24.996Z,29.57
2018-10-12T16:09:54.288Z,29.50
2018-10-12T16:12:23.542Z,50.13
2018-10-12T16:14:52.221Z,41.47
2018-10-12T18:31:28.336Z,22.67
2018-10-12T18:33:56.907Z,23.93
2018-10-12T18:36:25.477Z,23.87
2018-10-12T18:38:54.075Z,21.67
2018-10-12T18:41:22.668Z,23.00
2018-10-12T18:43:51.264Z,22.27
2018-10-12T18:46:19.815Z,22.73
2018-10-12T18:48:48.729Z,25.07
2018-10-12T18:51:17.328Z,21.40
2018-10-12T18:53:45.884Z,27.10
2018-10-12T18:56:14.467Z,25.90
2018-10-12T18:58:43.062Z,27.70
2018-10-12T19:01:11.640Z,23.27
2018-10-12T19:03:41.105Z,24.30
2018-10-12T19:06:09.832Z,23.40
2018-10-12T19:08:38.444Z,22.07
2018-10-12T19:11:07.004Z,22.53
2018-10-12T19:13:35.573Z,23.80
2018-10-12T19:16:23.328Z,26.73
2018-10-12T19:18:51.912Z,30.00
2018-10-12T19:21:20.453Z,30.57
2018-10-12T19:23:49.066Z,35.73
2018-10-12T19:26:17.564Z,30.57
2018-10-12T19:28:46.362Z,30.20
2018-10-12T19:31:14.987Z,31.13
2018-10-12T19:33:43.529Z,28.70
2018-10-12T19:36:12.068Z,28.33
2018-10-12T19:38:40.640Z,32.00
2018-10-12T19:41:09.196Z,27.53
2018-10-12T19:43:37.764Z,30.97
2018-10-12T19:46:06.329Z,32.30
2018-10-12T19:48:34.872Z,38.70
2018-10-12T19:51:03.436Z,34.53
2018-10-12T19:53:31.984Z,30.30
2018-10-12T19:56:00.552Z,30.00
2018-10-12T19:58:29.123Z,27.67
2018-10-12T20:00:57.799Z,24.57
2018-10-12T20:03:27.111Z,28.50
2018-10-12T20:05:55.947Z,30.80
2018-10-12T20:08:24.998Z,33.87
2018-10-12T20:10:53.752Z,27.40
2018-10-12T20:13:22.336Z,30.53
2018-10-12T20:15:50.944Z,27.83
2018-10-12T20:18:19.509Z,26.03
2018-10-12T20:20:48.104Z,29.60
2018-10-12T20:23:16.649Z,25.43
2018-10-12T20:25:45.249Z,26.50
2018-10-12T20:28:13.805Z,32.53
2018-10-12T20:30:42.475Z,25.90
2018-10-12T20:33:11.060Z,27.27
2018-10-12T20:35:39.600Z,26.17
2018-10-12T20:38:08.444Z,30.07
2018-10-12T20:40:36.985Z,33.63
2018-10-12T20:43:05.761Z,28.70
2018-10-12T20:45:34.595Z,30.77
2018-10-12T20:48:03.140Z,26.80
2018-10-12T20:50:31.702Z,27.50
2018-10-12T20:53:00.257Z,35.13
2018-10-12T20:55:28.820Z,28.33
2018-10-12T20:57:57.418Z,27.93
2018-10-12T21:00:26.022Z,25.60
2018-10-12T21:02:54.556Z,27.27
2018-10-12T21:05:23.125Z,30.57
2018-10-12T21:07:51.647Z,28.53
2018-10-12T21:10:20.243Z,28.80
2018-10-12T21:12:48.793Z,27.40
2018-10-12T21:15:17.319Z,30.87
2018-10-12T21:17:45.905Z,29.30
2018-10-12T21:20:14.469Z,32.50
2018-10-12T21:22:43.050Z,28.67
2018-10-12T21:25:11.580Z,31.73
2018-10-12T21:27:40.147Z,33.73
2018-10-12T21:30:08.747Z,31.57
2018-10-12T21:32:37.296Z,32.23
2018-10-12T21:35:05.860Z,28.37
2018-10-12T21:37:34.460Z,27.63
2018-10-12T21:40:03.028Z,30.80
2018-10-12T21:42:31.553Z,30.20
2018-10-12T21:45:00.105Z,32.70
2018-10-12T21:47:28.638Z,26.27
2018-10-12T21:49:57.224Z,32.47
2018-10-12T21:52:25.759Z,30.23
2018-10-12T21:54:54.302Z,28.30
2018-10-12T21:57:22.852Z,28.77
2018-10-12T21:59:51.413Z,32.60
2018-10-12T22:02:20.838Z,35.53
2018-10-12T22:04:49.419Z,33.13
2018-10-12T22:07:18.022Z,34.43
2018-10-12T22:09:46.584Z,31.23
2018-10-12T22:12:15.129Z,30.17
2018-10-12T22:14:43.784Z,36.23
